createdAt,value
2023-03-22T00:25:41.665Z,20.80
2023-03-22T00:27:45.686Z,20.90
2023-03-22T00:29:55.310Z,20.80
2023-03-22T00:31:59.277Z,20.80
2023-03-22T00:34:03.150Z,20.80
2023-03-22T00:36:16.891Z,20.90
2023-03-22T00:38:27.299Z,20.90
2023-03-22T00:40:44.109Z,20.90
2023-03-22T00:42:47.936Z,20.90
2023-03-22T00:44:51.757Z,20.90
2023-03-22T00:46:55.736Z,20.90
2023-03-22T00:48:59.714Z,20.90
2023-03-22T00:51:03.509Z,20.90
2023-03-22T00:53:09.344Z,20.90
2023-03-22T00:55:14.988Z,20.90
2023-03-22T00:57:20.597Z,20.90
2023-03-22T00:59:24.516Z,20.90
2023-03-22T01:01:28.385Z,20.90
2023-03-22T01:03:33.188Z,20.90
2023-03-22T01:05:37.186Z,20.90
2023-03-22T01:07:41.893Z,20.90
2023-03-22T01:09:46.003Z,20.90
2023-03-22T01:11:51.763Z,20.90
2023-03-22T01:13:57.105Z,20.90
2023-03-22T01:16:01.488Z,20.90
2023-03-22T01:18:05.752Z,20.90
2023-03-22T01:20:11.537Z,20.90
2023-03-22T01:22:15.855Z,20.90
2023-03-22T01:24:20.156Z,20.90
2023-03-22T01:26:24.071Z,20.90
2023-03-22T01:28:27.940Z,20.90
2023-03-22T01:30:33.156Z,20.90
2023-03-22T01:32:37.354Z,20.90
2023-03-22T01:34:41.737Z,20.90
2023-03-22T01:36:45.988Z,20.80
2023-03-22T01:38:50.473Z,20.90
2023-03-22T01:40:54.357Z,20.90
2023-03-22T01:42:58.653Z,20.90
2023-03-22T01:45:40.143Z,20.90
2023-03-22T01:47:47.013Z,20.90
2023-03-22T01:49:51.030Z,20.80
2023-03-22T01:51:56.940Z,20.90
2023-03-22T01:54:13.852Z,20.90
2023-03-22T01:56:18.286Z,20.90
2023-03-22T01:58:22.270Z,20.90
2023-03-22T02:00:30.814Z,20.80
2023-03-22T02:02:51.462Z,20.90
2023-03-22T02:05:04.030Z,20.90
2023-03-22T02:07:15.284Z,20.80
2023-03-22T02:09:21.933Z,20.90
2023-03-22T02:11:30.580Z,20.90
2023-03-22T02:13:51.865Z,20.90
2023-03-22T02:16:29.787Z,20.80
2023-03-22T02:18:50.564Z,20.90
2023-03-22T02:21:22.359Z,20.80
2023-03-22T02:23:56.568Z,20.90
2023-03-22T02:26:26.778Z,20.90
2023-03-22T02:28:39.523Z,20.90
2023-03-22T02:31:03.281Z,20.80
2023-03-22T02:33:50.169Z,20.90
2023-03-22T02:36:16.717Z,20.90
2023-03-22T02:39:05.364Z,20.90
2023-03-22T02:41:13.282Z,20.90
2023-03-22T02:43:20.591Z,20.90
2023-03-22T02:45:28.981Z,20.90
2023-03-22T02:47:39.433Z,20.80
2023-03-22T02:49:47.653Z,20.90
2023-03-22T02:51:53.781Z,20.90
2023-03-22T02:53:59.467Z,20.90
2023-03-22T02:56:06.269Z,20.80
2023-03-22T02:58:13.210Z,20.90
2023-03-22T03:00:17.885Z,20.80
2023-03-22T03:02:21.958Z,20.90
2023-03-22T03:04:28.026Z,20.90
2023-03-22T03:06:35.645Z,20.90
2023-03-22T03:08:39.670Z,20.90
2023-03-22T03:10:44.794Z,20.80
2023-03-22T03:12:49.993Z,20.80
2023-03-22T03:14:53.930Z,20.90
2023-03-22T03:17:09.048Z,20.80
2023-03-22T03:19:16.616Z,20.80
2023-03-22T03:21:32.588Z,20.80
2023-03-22T03:23:46.963Z,20.90
2023-03-22T03:25:57.846Z,20.90
2023-03-22T03:28:08.609Z,20.80
2023-03-22T03:30:15.289Z,20.90
2023-03-22T03:32:25.520Z,20.80
2023-03-22T03:34:31.370Z,20.90
2023-03-22T03:36:37.788Z,20.90
2023-03-22T03:38:44.058Z,20.90
2023-03-22T03:40:50.332Z,20.90
2023-03-22T03:42:55.220Z,20.90
2023-03-22T03:45:02.170Z,20.90
2023-03-22T03:47:07.774Z,20.90
2023-03-22T03:49:11.650Z,20.80
2023-03-22T03:51:15.472Z,20.90
2023-03-22T03:53:19.469Z,20.90
2023-03-22T03:55:23.930Z,20.90
2023-03-22T03:57:27.775Z,20.90
2023-03-22T03:59:31.753Z,20.90
2023-03-22T04:01:40.095Z,20.90
2023-03-22T04:03:50.581Z,20.90
2023-03-22T04:06:15.311Z,20.90
2023-03-22T04:08:23.909Z,20.90
2023-03-22T04:10:27.800Z,20.90
2023-03-22T04:12:32.065Z,20.90
2023-03-22T04:14:55.870Z,20.90
2023-03-22T04:17:04.583Z,20.90
2023-03-22T04:19:08.398Z,20.90
2023-03-22T04:21:12.418Z,20.90
2023-03-22T04:23:25.568Z,20.90
2023-03-22T04:25:30.398Z,20.90
2023-03-22T04:27:45.270Z,20.90
2023-03-22T04:29:50.952Z,20.90
2023-03-22T04:32:31.257Z,20.90
2023-03-22T04:34:35.288Z,20.90
2023-03-22T04:36:41.376Z,20.90
2023-03-22T04:38:54.109Z,20.90
2023-03-22T04:41:01.117Z,20.90
2023-03-22T04:43:13.732Z,20.90
2023-03-22T04:45:23.427Z,20.90
2023-03-22T04:47:34.374Z,20.90
2023-03-22T04:49:42.083Z,20.90
2023-03-22T04:51:46.367Z,20.90
2023-03-22T04:53:56.914Z,20.90
2023-03-22T04:56:02.607Z,20.90
2023-03-22T04:58:07.435Z,20.90
2023-03-22T05:00:15.509Z,20.90
2023-03-22T05:02:20.384Z,20.90
2023-03-22T05:04:27.161Z,20.90
2023-03-22T05:06:37.619Z,20.90
2023-03-22T05:08:54.003Z,20.90
2023-03-22T05:11:01.728Z,20.90
2023-03-22T05:13:05.873Z,21.00
2023-03-22T05:15:16.277Z,20.90
2023-03-22T05:17:20.701Z,20.90
2023-03-22T05:19:27.516Z,21.00
2023-03-22T05:21:36.798Z,21.00
2023-03-22T05:23:41.997Z,21.00
2023-03-22T05:25:48.375Z,21.00
2023-03-22T05:27:54.254Z,21.00
2023-03-22T05:30:13.284Z,21.00
2023-03-22T05:32:29.007Z,21.00
2023-03-22T05:34:36.306Z,21.00
2023-03-22T05:36:52.422Z,21.00
2023-03-22T05:39:16.671Z,21.00
2023-03-22T05:41:21.392Z,21.00
2023-03-22T05:43:25.316Z,21.00
2023-03-22T05:45:31.621Z,21.00
2023-03-22T05:47:55.518Z,21.00
2023-03-22T05:50:00.861Z,21.00
2023-03-22T05:52:07.233Z,21.00
2023-03-22T05:54:37.278Z,21.00
2023-03-22T05:56:41.129Z,21.10
2023-03-22T05:58:44.937Z,21.00
2023-03-22T06:00:52.470Z,21.10
2023-03-22T06:03:03.708Z,21.10
2023-03-22T06:05:12.731Z,21.10
2023-03-22T06:07:16.672Z,21.10
2023-03-22T06:09:24.772Z,21.10
2023-03-22T06:11:30.513Z,21.10
2023-03-22T06:13:34.557Z,21.10
2023-03-22T06:15:38.449Z,21.10
2023-03-22T06:17:44.869Z,21.10
2023-03-22T06:19:53.278Z,21.10
2023-03-22T06:21:58.844Z,21.10
2023-03-22T06:24:03.988Z,21.10
2023-03-22T06:26:09.298Z,21.10
2023-03-22T06:28:13.672Z,21.10
2023-03-22T06:30:25.808Z,21.20
2023-03-22T06:32:42.512Z,21.20
2023-03-22T06:34:46.579Z,21.20
2023-03-22T06:36:50.879Z,21.20
2023-03-22T06:39:16.461Z,21.20
2023-03-22T06:41:21.897Z,21.20
2023-03-22T06:43:27.713Z,21.20
2023-03-22T06:45:38.917Z,21.20
2023-03-22T06:47:43.766Z,21.20
2023-03-22T06:49:53.090Z,21.20
2023-03-22T06:52:01.624Z,21.20
2023-03-22T06:54:05.970Z,21.20
2023-03-22T06:56:11.879Z,21.30
2023-03-22T06:58:23.520Z,21.20
2023-03-22T07:00:27.416Z,21.30
2023-03-22T07:02:31.325Z,21.30
2023-03-22T07:05:00.466Z,21.30
2023-03-22T07:07:04.379Z,21.30
2023-03-22T07:09:08.265Z,21.30
2023-03-22T07:11:15.391Z,21.30
2023-03-22T07:13:22.202Z,21.30
2023-03-22T07:15:28.136Z,21.30
2023-03-22T07:17:38.474Z,21.30
2023-03-22T07:19:42.870Z,21.30
2023-03-22T07:21:48.589Z,21.30
2023-03-22T07:23:53.545Z,21.30
2023-03-22T07:26:00.572Z,21.30
2023-03-22T07:28:11.119Z,21.30
2023-03-22T07:30:15.265Z,21.30
2023-03-22T07:32:22.337Z,21.40
2023-03-22T07:34:52.656Z,21.40
2023-03-22T07:36:57.786Z,21.40
2023-03-22T07:39:02.847Z,21.40
2023-03-22T07:41:11.344Z,21.50
2023-03-22T07:43:30.795Z,21.50
2023-03-22T07:45:46.613Z,21.50
2023-03-22T07:48:11.140Z,21.60
2023-03-22T07:50:43.987Z,21.60
2023-03-22T07:52:47.915Z,21.60
2023-03-22T07:54:51.761Z,21.60
2023-03-22T07:56:55.673Z,21.60
2023-03-22T07:59:00.964Z,21.60
2023-03-22T08:01:08.869Z,21.60
2023-03-22T08:03:34.732Z,21.60
2023-03-22T08:05:45.359Z,21.60
2023-03-22T08:07:52.425Z,21.60
2023-03-22T08:09:58.333Z,21.60
2023-03-22T08:12:02.860Z,21.60
2023-03-22T08:14:09.625Z,21.60
2023-03-22T08:16:15.556Z,21.60
2023-03-22T08:18:19.422Z,21.60
2023-03-22T08:20:26.027Z,21.60
2023-03-22T08:22:31.778Z,21.60
2023-03-22T08:25:04.554Z,21.60
2023-03-22T08:27:14.078Z,21.60
2023-03-22T08:29:28.258Z,21.60
2023-03-22T08:31:32.564Z,21.60
2023-03-22T08:33:36.391Z,21.60
2023-03-22T08:35:40.666Z,21.60
2023-03-22T08:37:44.989Z,21.60
2023-03-22T08:39:48.950Z,21.60
2023-03-22T08:41:58.527Z,21.60
2023-03-22T08:44:03.905Z,21.60
2023-03-22T08:46:10.746Z,21.60
2023-03-22T08:48:15.019Z,21.60
2023-03-22T08:50:36.401Z,21.60
2023-03-22T08:52:50.806Z,21.60
2023-03-22T08:55:08.213Z,21.60
2023-03-22T08:57:31.498Z,21.60
2023-03-22T09:00:16.308Z,21.60
2023-03-22T09:02:37.251Z,21.60
2023-03-22T09:04:41.120Z,21.60
2023-03-22T09:06:46.836Z,21.60
2023-03-22T09:08:52.108Z,21.60
2023-03-22T09:10:58.009Z,21.50
2023-03-22T09:13:01.816Z,21.50
2023-03-22T09:15:07.469Z,21.50
2023-03-22T09:17:12.859Z,21.50
2023-03-22T09:19:18.417Z,21.50
2023-03-22T09:21:22.662Z,21.50
2023-03-22T09:23:34.797Z,21.50
2023-03-22T09:25:39.119Z,21.50
2023-03-22T09:27:43.454Z,21.40
2023-03-22T09:29:49.315Z,21.40
2023-03-22T09:31:54.651Z,21.40
2023-03-22T09:34:03.188Z,21.40
2023-03-22T09:36:09.109Z,21.40
2023-03-22T09:38:13.664Z,21.40
2023-03-22T09:40:19.621Z,21.40
2023-03-22T09:42:33.065Z,21.40
2023-03-22T09:44:41.922Z,21.40
2023-03-22T09:46:51.042Z,21.40
2023-03-22T09:48:54.885Z,21.40
2023-03-22T09:50:58.746Z,21.40
2023-03-22T09:53:03.969Z,21.40
2023-03-22T09:55:17.669Z,21.30
2023-03-22T09:57:26.204Z,21.40
2023-03-22T09:59:35.008Z,21.30
2023-03-22T10:01:42.916Z,21.30
2023-03-22T10:04:31.098Z,21.30
2023-03-22T10:06:35.020Z,21.30
2023-03-22T10:08:48.069Z,21.30
2023-03-22T10:10:52.664Z,21.30
2023-03-22T10:12:59.909Z,21.30
2023-03-22T10:15:06.706Z,21.30
2023-03-22T10:17:13.049Z,21.30
2023-03-22T10:19:20.764Z,21.30
2023-03-22T10:21:24.629Z,21.30
2023-03-22T10:23:31.736Z,21.30
2023-03-22T10:25:38.432Z,21.30
2023-03-22T10:27:42.733Z,21.30
2023-03-22T10:29:48.651Z,21.30
2023-03-22T10:31:52.577Z,21.30
2023-03-22T10:33:59.127Z,21.30
2023-03-22T10:36:03.387Z,21.30
2023-03-22T10:38:20.301Z,21.30
2023-03-22T10:40:26.979Z,21.30
2023-03-22T10:42:32.145Z,21.20
2023-03-22T10:44:43.232Z,21.20
2023-03-22T10:46:47.065Z,21.20
2023-03-22T10:48:52.156Z,21.20
2023-03-22T10:50:56.309Z,21.30
2023-03-22T10:53:58.200Z,21.20
2023-03-22T10:56:02.225Z,21.20
2023-03-22T10:58:13.523Z,21.20
2023-03-22T11:00:18.449Z,21.20
2023-03-22T11:02:24.990Z,21.20
2023-03-22T11:04:28.921Z,21.20
2023-03-22T11:06:35.168Z,21.20
2023-03-22T11:08:47.248Z,21.20
2023-03-22T11:10:52.066Z,21.20
2023-03-22T11:13:00.389Z,21.20
2023-03-22T11:15:06.748Z,21.20
2023-03-22T11:17:14.425Z,21.20
2023-03-22T11:19:22.484Z,21.20
2023-03-22T11:22:03.762Z,21.10
2023-03-22T11:24:08.537Z,21.20
2023-03-22T11:26:13.905Z,21.10
2023-03-22T11:28:20.155Z,21.20
2023-03-22T11:30:27.099Z,21.20
2023-03-22T11:32:37.555Z,21.20
2023-03-22T11:34:41.840Z,21.20
2023-03-22T11:39:00.507Z,21.20
2023-03-22T11:41:05.872Z,21.20
2023-03-22T11:43:16.579Z,21.20
2023-03-22T11:45:24.269Z,21.20
2023-03-22T11:47:29.379Z,21.20
2023-03-22T11:49:40.299Z,21.20
2023-03-22T11:51:44.176Z,21.20
2023-03-22T11:53:49.084Z,21.20
2023-03-22T11:55:55.064Z,21.20
2023-03-22T11:57:59.142Z,21.20
2023-03-22T12:00:07.070Z,21.20
2023-03-22T12:02:18.401Z,21.20
2023-03-22T12:04:26.968Z,21.20
2023-03-22T12:06:34.038Z,21.20
2023-03-22T12:08:42.757Z,21.10
2023-03-22T12:10:49.537Z,21.20
2023-03-22T12:12:55.294Z,21.20
2023-03-22T12:15:01.942Z,21.10
2023-03-22T12:17:08.885Z,21.20
2023-03-22T12:19:20.819Z,21.20
2023-03-22T12:21:26.054Z,21.10
2023-03-22T12:23:31.107Z,21.10
2023-03-22T12:25:36.525Z,21.10
2023-03-22T12:27:42.508Z,21.20
2023-03-22T12:29:49.512Z,21.20
2023-03-22T12:31:59.157Z,21.20
2023-03-22T12:34:06.551Z,21.10
2023-03-22T12:36:13.979Z,21.20
2023-03-22T12:38:27.911Z,21.20
2023-03-22T12:40:34.311Z,21.20
2023-03-22T12:42:50.896Z,21.20
2023-03-22T12:45:05.022Z,21.10
2023-03-22T12:47:15.912Z,21.10
2023-03-22T12:49:24.336Z,21.20
2023-03-22T12:51:28.137Z,21.20
2023-03-22T12:53:42.160Z,21.20
2023-03-22T12:55:46.262Z,21.10
2023-03-22T12:57:54.270Z,21.20
2023-03-22T13:00:00.322Z,21.20
2023-03-22T13:02:10.989Z,21.10
2023-03-22T13:04:32.536Z,21.20
2023-03-22T13:06:57.354Z,21.20
2023-03-22T13:09:16.930Z,21.20
2023-03-22T13:11:24.626Z,21.20
2023-03-22T13:13:42.990Z,21.20
2023-03-22T13:16:02.249Z,21.20
2023-03-22T13:18:06.188Z,21.20
2023-03-22T13:20:28.562Z,21.20
2023-03-22T13:23:12.038Z,21.20
2023-03-22T13:25:29.965Z,21.20
2023-03-22T13:27:43.554Z,21.20
2023-03-22T13:29:47.518Z,21.20
2023-03-22T13:31:58.540Z,21.20
2023-03-22T13:34:04.029Z,21.20
2023-03-22T13:36:22.915Z,21.20
2023-03-22T13:38:27.897Z,21.20
2023-03-22T13:40:36.608Z,21.20
2023-03-22T13:42:41.235Z,21.20
2023-03-22T13:44:46.839Z,21.20
2023-03-22T13:46:52.599Z,21.20
2023-03-22T13:49:17.666Z,21.20
2023-03-22T13:51:29.147Z,21.20
2023-03-22T13:53:34.392Z,21.20
2023-03-22T13:55:43.396Z,21.20
2023-03-22T13:57:58.790Z,21.20
2023-03-22T14:00:12.056Z,21.20
2023-03-22T14:02:22.828Z,21.20
2023-03-22T14:04:31.316Z,21.20
2023-03-22T14:06:40.207Z,21.20
2023-03-22T14:08:47.377Z,21.20
2023-03-22T14:10:56.379Z,21.20
2023-03-22T14:13:03.430Z,21.20
2023-03-22T14:15:08.750Z,21.20
2023-03-22T14:17:19.011Z,21.20
2023-03-22T14:19:24.983Z,21.20
2023-03-22T14:21:34.410Z,21.20
